createdAt,value
2023-04-15T00:01:47.038Z,5.89
2023-04-15T00:04:13.666Z,5.89
2023-04-15T00:06:40.136Z,5.80
2023-04-15T00:09:06.562Z,5.77
2023-04-15T00:11:33.276Z,5.75
2023-04-15T00:14:00.271Z,5.76
2023-04-15T00:16:26.762Z,5.79
2023-04-15T00:18:53.187Z,5.74
2023-04-15T00:21:19.604Z,5.75
2023-04-15T00:23:49.729Z,5.75
2023-04-15T00:26:16.263Z,5.74
2023-04-15T00:28:42.654Z,5.74
2023-04-15T00:31:09.786Z,5.71
2023-04-15T00:33:36.796Z,5.72
2023-04-15T00:36:04.070Z,5.73
2023-04-15T00:38:30.510Z,5.73
2023-04-15T00:40:57.326Z,5.73
2023-04-15T00:43:23.786Z,5.70
2023-04-15T00:45:53.650Z,5.69
2023-04-15T00:48:20.594Z,5.64
2023-04-15T00:50:47.069Z,5.58
2023-04-15T00:53:13.529Z,5.56
2023-04-15T00:55:40.122Z,5.53
2023-04-15T00:58:06.554Z,5.51
2023-04-15T01:00:33.008Z,5.47
2023-04-15T01:02:59.608Z,5.45
2023-04-15T01:05:27.073Z,5.39
2023-04-15T01:07:53.539Z,5.37
2023-04-15T01:10:20.024Z,5.34
2023-04-15T01:12:46.853Z,5.29
2023-04-15T01:15:13.589Z,5.24
2023-04-15T01:17:40.162Z,5.19
2023-04-15T01:20:10.041Z,5.16
2023-04-15T01:22:36.543Z,5.07
2023-04-15T01:25:13.085Z,5.09
2023-04-15T01:27:42.223Z,4.82
2023-04-15T01:30:10.498Z,4.91
2023-04-15T01:32:37.191Z,4.95
2023-04-15T01:35:03.734Z,4.93
2023-04-15T01:37:30.931Z,4.67
2023-04-15T01:39:58.036Z,4.84
2023-04-15T01:42:24.430Z,4.83
2023-04-15T01:44:51.071Z,4.79
2023-04-15T01:47:17.616Z,4.74
2023-04-15T01:49:44.015Z,4.68
2023-04-15T01:52:10.441Z,4.67
2023-04-15T01:54:36.855Z,4.62
2023-04-15T01:57:03.711Z,4.59
2023-04-15T01:59:31.910Z,4.46
2023-04-15T02:01:58.696Z,4.53
2023-04-15T02:04:25.144Z,4.38
2023-04-15T02:06:51.594Z,4.46
2023-04-15T02:09:18.005Z,3.89
2023-04-15T02:11:46.237Z,4.43
2023-04-15T02:14:12.681Z,4.39
2023-04-15T02:16:39.205Z,4.41
2023-04-15T02:19:05.754Z,4.32
2023-04-15T02:21:32.171Z,4.36
2023-04-15T02:23:58.576Z,4.37
2023-04-15T02:26:25.318Z,4.33
2023-04-15T02:28:51.765Z,4.32
2023-04-15T02:31:18.258Z,4.27
2023-04-15T02:33:45.092Z,4.06
2023-04-15T02:36:12.389Z,4.29
2023-04-15T02:38:40.730Z,4.27
2023-04-15T02:41:07.169Z,4.22
2023-04-15T02:43:33.607Z,4.16
2023-04-15T02:46:00.064Z,4.15
2023-04-15T02:48:26.991Z,4.10
2023-04-15T02:50:53.418Z,4.13
2023-04-15T02:53:20.077Z,4.13
2023-04-15T02:55:46.671Z,4.11
2023-04-15T02:58:13.178Z,4.11
2023-04-15T03:00:39.774Z,4.07
2023-04-15T03:03:06.858Z,4.06
2023-04-15T03:05:33.486Z,4.00
2023-04-15T03:08:01.156Z,3.98
2023-04-15T03:10:27.908Z,3.98
2023-04-15T03:12:54.291Z,3.96
2023-04-15T03:15:21.165Z,3.97
2023-04-15T03:17:49.447Z,3.96
2023-04-15T03:20:16.946Z,3.93
2023-04-15T03:22:43.469Z,3.87
2023-04-15T03:25:09.907Z,3.79
2023-04-15T03:27:36.351Z,3.77
2023-04-15T03:30:03.251Z,3.74
2023-04-15T03:32:29.808Z,3.75
2023-04-15T03:34:56.248Z,3.78
2023-04-15T03:37:22.659Z,3.73
2023-04-15T03:39:49.023Z,3.70
2023-04-15T03:42:15.629Z,3.65
2023-04-15T03:44:42.201Z,3.39
2023-04-15T03:47:08.642Z,3.56
2023-04-15T03:49:36.024Z,3.51
2023-04-15T03:52:02.428Z,3.50
2023-04-15T03:54:28.888Z,3.45
2023-04-15T03:56:55.975Z,3.43
2023-04-15T03:59:22.420Z,3.42
2023-04-15T04:01:48.907Z,3.42
2023-04-15T04:04:15.619Z,3.41
2023-04-15T04:06:42.101Z,3.37
2023-04-15T04:09:08.540Z,3.33
2023-04-15T04:11:35.224Z,3.35
2023-04-15T04:14:01.611Z,3.34
2023-04-15T04:16:28.109Z,3.29
2023-04-15T04:18:54.685Z,3.24
2023-04-15T04:21:21.624Z,3.23
2023-04-15T04:23:48.109Z,3.18
2023-04-15T04:26:14.517Z,3.17
2023-04-15T04:28:40.972Z,3.16
2023-04-15T04:31:07.786Z,3.14
2023-04-15T04:33:34.315Z,3.12
2023-04-15T04:36:00.715Z,3.07
2023-04-15T04:38:27.189Z,3.01
2023-04-15T04:40:54.013Z,3.04
2023-04-15T04:43:20.472Z,3.13
2023-04-15T04:45:47.295Z,3.14
2023-04-15T04:48:13.774Z,3.14
2023-04-15T04:50:40.409Z,3.12
2023-04-15T04:53:06.936Z,3.08
2023-04-15T04:55:33.417Z,3.09
2023-04-15T04:57:59.774Z,3.08
2023-04-15T05:00:26.169Z,3.13
2023-04-15T05:02:52.774Z,3.13
2023-04-15T05:05:19.387Z,3.20
2023-04-15T05:07:46.078Z,3.22
2023-04-15T05:10:12.526Z,3.25
2023-04-15T05:12:39.054Z,3.32
2023-04-15T05:15:06.694Z,3.37
2023-04-15T05:17:35.248Z,3.44
2023-04-15T05:20:02.780Z,3.50
2023-04-15T05:22:29.298Z,3.60
2023-04-15T05:24:56.019Z,3.70
2023-04-15T05:27:24.040Z,3.84
2023-04-15T05:29:50.518Z,3.85
2023-04-15T05:32:17.408Z,4.15
2023-04-15T05:34:43.874Z,4.36
2023-04-15T05:37:10.504Z,4.63
2023-04-15T05:39:36.956Z,4.90
2023-04-15T05:42:03.519Z,5.17
2023-04-15T05:44:30.076Z,5.44
2023-04-15T05:46:56.887Z,5.61
2023-04-15T05:49:23.520Z,5.71
2023-04-15T05:51:49.938Z,6.22
2023-04-15T05:54:18.696Z,6.58
2023-04-15T05:56:46.532Z,6.82
2023-04-15T05:59:13.115Z,7.06
2023-04-15T06:01:39.994Z,7.23
2023-04-15T06:04:06.807Z,7.41
2023-04-15T06:06:33.388Z,7.57
2023-04-15T06:08:59.965Z,7.67
2023-04-15T06:11:27.250Z,7.73
2023-04-15T06:13:53.624Z,7.86
2023-04-15T06:16:20.065Z,7.97
2023-04-15T06:18:46.485Z,8.10
2023-04-15T06:21:13.263Z,8.20
2023-04-15T06:23:41.178Z,8.24
2023-04-15T06:26:07.873Z,8.35
2023-04-15T06:28:34.540Z,8.48
2023-04-15T06:31:01.914Z,8.51
2023-04-15T06:33:28.651Z,8.65
2023-04-15T06:35:55.069Z,8.79
2023-04-15T06:38:21.587Z,8.93
2023-04-15T06:40:48.071Z,9.08
2023-04-15T06:43:15.245Z,9.23
2023-04-15T06:45:41.704Z,9.34
2023-04-15T06:48:08.135Z,9.47
2023-04-15T06:50:35.652Z,9.56
2023-04-15T06:53:02.169Z,9.78
2023-04-15T06:55:28.642Z,9.94
2023-04-15T06:57:55.357Z,10.17
2023-04-15T07:00:22.300Z,10.27
2023-04-15T07:02:48.797Z,10.39
2023-04-15T07:05:15.588Z,10.50
2023-04-15T07:07:42.240Z,10.62
2023-04-15T07:10:09.188Z,10.92
2023-04-15T07:12:35.890Z,11.20
2023-04-15T07:15:02.282Z,11.36
2023-04-15T07:17:28.760Z,11.52
2023-04-15T07:19:55.211Z,11.81
2023-04-15T07:22:21.622Z,12.08
2023-04-15T07:24:48.033Z,12.28
2023-04-15T07:27:14.481Z,12.50
2023-04-15T07:29:41.370Z,12.76
2023-04-15T07:32:07.818Z,12.95
2023-04-15T07:34:34.240Z,12.99
2023-04-15T07:37:00.715Z,13.01
2023-04-15T07:39:27.307Z,13.09
2023-04-15T07:41:53.723Z,12.97
2023-04-15T07:44:20.436Z,12.78
2023-04-15T07:46:48.004Z,12.77
2023-04-15T07:49:14.520Z,12.81
2023-04-15T07:51:41.002Z,12.76
2023-04-15T07:54:08.900Z,12.64
2023-04-15T07:56:35.332Z,12.34
2023-04-15T07:59:06.054Z,12.46
2023-04-15T08:01:35.762Z,12.54
2023-04-15T08:04:02.368Z,12.46
2023-04-15T08:06:29.189Z,12.41
2023-04-15T08:08:55.657Z,12.46
2023-04-15T08:11:23.093Z,12.54
2023-04-15T08:13:49.517Z,12.64
2023-04-15T08:16:27.845Z,12.85
2023-04-15T08:18:56.769Z,13.06
2023-04-15T08:21:23.823Z,13.31
2023-04-15T08:23:52.032Z,13.51
2023-04-15T08:26:19.373Z,13.64
2023-04-15T08:28:46.309Z,13.88
2023-04-15T08:31:14.747Z,14.04
2023-04-15T08:33:41.153Z,14.29
2023-04-15T08:36:07.792Z,14.01
2023-04-15T08:38:34.660Z,13.63
2023-04-15T08:41:04.868Z,13.85
2023-04-15T08:43:47.823Z,13.28
2023-04-15T08:46:15.589Z,13.62
2023-04-15T08:48:45.237Z,13.42
2023-04-15T08:51:15.979Z,13.53
2023-04-15T08:53:47.352Z,13.46
2023-04-15T08:56:16.598Z,13.32
2023-04-15T08:58:47.077Z,13.36
2023-04-15T09:01:13.708Z,13.15
2023-04-15T09:03:41.701Z,13.27
2023-04-15T09:06:08.701Z,13.40
2023-04-15T09:08:35.789Z,13.41
2023-04-15T09:11:03.261Z,13.40
2023-04-15T09:13:30.454Z,13.21
2023-04-15T09:15:58.447Z,13.21
2023-04-15T09:18:33.015Z,13.40
2023-04-15T09:21:14.138Z,13.53
2023-04-15T09:23:53.664Z,13.71
2023-04-15T09:26:20.415Z,13.79
2023-04-15T09:28:46.796Z,13.78
2023-04-15T09:31:13.263Z,13.94
2023-04-15T09:33:56.805Z,14.22
2023-04-15T09:36:25.019Z,14.50
2023-04-15T09:38:57.216Z,14.62
2023-04-15T09:41:24.924Z,14.77
2023-04-15T09:43:51.662Z,14.72
2023-04-15T09:46:18.439Z,14.83
2023-04-15T09:48:45.345Z,14.87
2023-04-15T09:51:11.882Z,15.03
2023-04-15T09:53:38.413Z,15.13
2023-04-15T09:56:07.770Z,15.12
2023-04-15T09:58:36.062Z,15.05
2023-04-15T10:01:11.570Z,15.10
2023-04-15T10:03:39.487Z,15.19
2023-04-15T10:06:06.136Z,15.23
2023-04-15T10:08:34.927Z,15.18
2023-04-15T10:11:05.502Z,15.24
2023-04-15T10:13:37.339Z,15.00
2023-04-15T10:16:15.782Z,14.85
2023-04-15T10:18:47.980Z,14.86
2023-04-15T10:21:18.354Z,14.88
2023-04-15T10:23:47.702Z,14.85
2023-04-15T10:26:20.326Z,14.84
2023-04-15T10:28:49.625Z,14.97
2023-04-15T10:31:18.509Z,14.82
2023-04-15T10:33:47.459Z,14.81
2023-04-15T10:36:14.412Z,14.82
2023-04-15T10:38:45.826Z,15.20
2023-04-15T10:41:13.267Z,15.29
2023-04-15T10:43:40.152Z,15.38
2023-04-15T10:46:06.987Z,15.10
2023-04-15T10:48:33.590Z,15.15
2023-04-15T10:51:05.038Z,15.18
2023-04-15T10:53:32.009Z,15.31
2023-04-15T10:55:58.672Z,15.45
2023-04-15T10:58:25.799Z,15.44
2023-04-15T11:00:53.789Z,15.50
2023-04-15T11:03:40.569Z,14.83
2023-04-15T11:06:07.499Z,14.84
2023-04-15T11:08:56.948Z,14.80
2023-04-15T11:11:23.447Z,14.36
2023-04-15T11:13:51.739Z,14.63
2023-04-15T11:16:18.497Z,14.60
2023-04-15T11:18:55.742Z,14.71
2023-04-15T11:21:25.352Z,14.64
2023-04-15T11:23:51.853Z,14.31
2023-04-15T11:26:18.316Z,14.08
2023-04-15T11:28:46.125Z,13.87
2023-04-15T11:31:17.707Z,13.80
2023-04-15T11:33:56.537Z,13.94
2023-04-15T11:36:29.715Z,13.80
2023-04-15T11:38:58.899Z,13.62
2023-04-15T11:41:25.368Z,13.53
2023-04-15T11:43:52.545Z,13.54
2023-04-15T11:46:19.209Z,13.57
2023-04-15T11:48:46.950Z,13.49
2023-04-15T11:51:14.551Z,13.46
2023-04-15T11:53:51.069Z,13.41
2023-04-15T11:56:19.598Z,13.33
2023-04-15T11:58:46.548Z,13.12
2023-04-15T12:01:13.660Z,13.21
2023-04-15T12:03:43.430Z,13.35
2023-04-15T12:06:23.432Z,13.50
2023-04-15T12:08:55.846Z,13.57
2023-04-15T12:11:30.949Z,13.47
2023-04-15T12:14:12.781Z,13.43
2023-04-15T12:16:48.567Z,13.44
2023-04-15T12:19:25.991Z,13.31
2023-04-15T12:21:58.792Z,13.43
2023-04-15T12:24:26.563Z,13.51
2023-04-15T12:26:57.976Z,13.55
2023-04-15T12:29:28.960Z,13.52
2023-04-15T12:31:57.626Z,13.31
2023-04-15T12:34:28.466Z,13.33
2023-04-15T12:36:55.530Z,13.28
2023-04-15T12:39:24.392Z,13.19
2023-04-15T12:41:51.531Z,12.98
2023-04-15T12:44:18.192Z,12.95
2023-04-15T12:46:46.808Z,12.93
2023-04-15T12:49:14.741Z,12.83
2023-04-15T12:51:41.193Z,12.77
2023-04-15T12:54:07.920Z,12.71
2023-04-15T12:56:34.350Z,12.55
2023-04-15T12:59:00.772Z,12.47
2023-04-15T13:01:27.304Z,12.40
2023-04-15T13:03:53.821Z,12.38
2023-04-15T13:06:20.279Z,12.31
2023-04-15T13:08:57.219Z,12.34
2023-04-15T13:11:25.365Z,12.40
2023-04-15T13:13:52.920Z,12.48
2023-04-15T13:16:19.584Z,12.37
2023-04-15T13:18:46.162Z,12.55
2023-04-15T13:21:13.274Z,12.63
2023-04-15T13:23:41.550Z,12.40
2023-04-15T13:26:08.350Z,12.65
2023-04-15T13:28:35.271Z,12.52
2023-04-15T13:31:01.823Z,12.48
2023-04-15T13:33:28.276Z,12.37
2023-04-15T13:35:54.737Z,12.15
2023-04-15T13:38:21.378Z,12.32
2023-04-15T13:40:47.833Z,12.35
2023-04-15T13:43:14.367Z,12.23
2023-04-15T13:45:41.136Z,12.21
2023-04-15T13:48:07.589Z,12.07
2023-04-15T13:50:33.996Z,12.06
2023-04-15T13:53:00.553Z,11.94
2023-04-15T13:55:27.964Z,11.95
2023-04-15T13:57:56.251Z,12.02
2023-04-15T14:00:22.678Z,11.99
2023-04-15T14:02:49.170Z,11.99
2023-04-15T14:05:15.707Z,12.09
2023-04-15T14:07:42.217Z,12.14
2023-04-15T14:10:09.030Z,12.04
2023-04-15T14:12:35.654Z,12.04
2023-04-15T14:15:02.331Z,12.21
2023-04-15T14:17:28.881Z,12.26
2023-04-15T14:19:55.338Z,12.29
2023-04-15T14:22:21.830Z,12.27
2023-04-15T14:24:49.154Z,12.12
2023-04-15T14:27:16.470Z,11.99
2023-04-15T14:29:42.919Z,11.92
2023-04-15T14:32:12.057Z,11.86
2023-04-15T14:34:39.713Z,11.79
2023-04-15T14:37:06.484Z,11.78
2023-04-15T14:39:33.066Z,11.78
2023-04-15T14:41:59.549Z,11.72
2023-04-15T14:44:26.061Z,11.78
2023-04-15T14:46:52.662Z,11.80
2023-04-15T14:49:19.712Z,11.79
2023-04-15T14:51:46.407Z,11.74
2023-04-15T14:54:12.832Z,11.72
2023-04-15T14:56:39.271Z,11.69
2023-04-15T14:59:06.071Z,11.48
2023-04-15T15:01:34.064Z,11.50
2023-04-15T15:04:00.946Z,11.48
2023-04-15T15:06:27.812Z,11.44
2023-04-15T15:08:54.241Z,11.52
2023-04-15T15:11:21.011Z,11.48
2023-04-15T15:13:47.471Z,11.55
2023-04-15T15:16:14.647Z,11.45
2023-04-15T15:18:41.346Z,11.59
2023-04-15T15:21:07.801Z,11.65
2023-04-15T15:23:34.332Z,11.72
2023-04-15T15:26:00.842Z,11.76
2023-04-15T15:28:27.285Z,11.78
2023-04-15T15:30:53.788Z,11.69
2023-04-15T15:33:20.846Z,11.65
2023-04-15T15:35:47.319Z,11.64
2023-04-15T15:38:13.761Z,11.70
2023-04-15T15:40:40.357Z,11.74
2023-04-15T15:43:06.767Z,11.80
2023-04-15T15:45:33.615Z,11.89
2023-04-15T15:48:01.539Z,11.95
2023-04-15T15:50:28.060Z,11.91
2023-04-15T15:52:55.133Z,11.81
2023-04-15T15:55:21.650Z,11.80
2023-04-15T15:57:48.039Z,11.77
2023-04-15T16:00:14.808Z,11.79
2023-04-15T16:05:11.800Z,11.82
2023-04-15T16:07:38.221Z,11.79
2023-04-15T16:10:05.102Z,11.91
2023-04-15T16:12:33.782Z,11.92
2023-04-15T16:15:01.339Z,11.83
2023-04-15T16:17:27.918Z,11.64
2023-04-15T16:19:59.121Z,11.60
2023-04-15T16:22:27.274Z,11.28
2023-04-15T16:24:53.847Z,11.36
2023-04-15T16:27:20.289Z,11.31
2023-04-15T16:29:46.799Z,11.30
2023-04-15T16:32:13.400Z,11.28
2023-04-15T16:34:41.264Z,11.26
2023-04-15T16:37:07.782Z,11.22
2023-04-15T16:39:34.251Z,11.15
2023-04-15T16:42:02.279Z,10.85
2023-04-15T16:44:28.986Z,11.10
2023-04-15T16:46:55.780Z,11.05
2023-04-15T16:49:22.315Z,11.05
2023-04-15T16:51:48.713Z,11.02
2023-04-15T16:54:15.276Z,10.97
2023-04-15T16:56:41.787Z,11.00
2023-04-15T16:59:08.284Z,11.00
2023-04-15T17:01:34.868Z,10.91
2023-04-15T17:04:01.506Z,10.81
2023-04-15T17:06:28.216Z,10.69
2023-04-15T17:08:54.598Z,10.67
2023-04-15T17:11:21.031Z,10.67
2023-04-15T17:13:47.573Z,10.64
2023-04-15T17:16:14.088Z,10.57
2023-04-15T17:18:40.712Z,10.59
2023-04-15T17:21:07.158Z,10.48
2023-04-15T17:23:33.655Z,10.47
2023-04-15T17:26:00.139Z,10.46
2023-04-15T17:28:26.721Z,10.39
2023-04-15T17:30:53.204Z,10.36
2023-04-15T17:33:54.049Z,10.28
2023-04-15T17:36:06.368Z,9.98
2023-04-15T17:38:32.793Z,10.22
2023-04-15T17:40:59.277Z,10.14
2023-04-15T17:43:25.761Z,10.15
2023-04-15T17:45:52.243Z,10.16
2023-04-15T17:48:18.702Z,10.07
2023-04-15T17:50:45.094Z,9.95
2023-04-15T17:53:11.732Z,9.97
2023-04-15T17:55:38.362Z,9.95
2023-04-15T17:58:04.828Z,9.85
2023-04-15T18:00:31.358Z,9.81
2023-04-15T18:02:57.959Z,9.77
2023-04-15T18:05:24.548Z,9.79
2023-04-15T18:07:53.992Z,9.74
2023-04-15T18:10:20.741Z,9.77
2023-04-15T18:12:48.083Z,9.70
2023-04-15T18:15:14.589Z,9.71
2023-04-15T18:17:41.026Z,9.68
2023-04-15T18:20:07.959Z,9.48
2023-04-15T18:22:34.452Z,9.54
2023-04-15T18:25:04.190Z,9.49
2023-04-15T18:27:34.572Z,9.48
2023-04-15T18:30:01.167Z,9.34
2023-04-15T18:32:31.673Z,9.47
2023-04-15T18:34:58.376Z,9.43
2023-04-15T18:37:25.169Z,9.40
2023-04-15T18:39:51.703Z,9.39
2023-04-15T18:42:18.245Z,9.35
2023-04-15T18:44:44.688Z,9.12
2023-04-15T18:47:11.181Z,9.31
2023-04-15T18:49:37.655Z,9.22
2023-04-15T18:52:04.185Z,9.23
2023-04-15T18:54:30.662Z,9.16
2023-04-15T18:56:57.277Z,9.16
2023-04-15T18:59:29.280Z,9.12
2023-04-15T19:01:58.185Z,9.04
2023-04-15T19:04:24.721Z,8.90
2023-04-15T19:06:51.470Z,9.01
2023-04-15T19:09:18.023Z,9.03
2023-04-15T19:11:44.476Z,9.03
2023-04-15T19:14:11.250Z,8.98
2023-04-15T19:16:37.838Z,9.02
2023-04-15T19:19:06.416Z,8.95
2023-04-15T19:21:33.229Z,8.90
2023-04-15T19:24:00.771Z,8.90
2023-04-15T19:26:27.273Z,8.83
2023-04-15T19:28:56.458Z,8.83
2023-04-15T19:31:23.033Z,8.79
2023-04-15T19:33:49.600Z,8.60
2023-04-15T19:36:18.043Z,8.69
2023-04-15T19:38:44.521Z,8.64
2023-04-15T19:41:11.054Z,8.59
2023-04-15T19:43:37.470Z,8.55
2023-04-15T19:46:03.952Z,8.46
2023-04-15T19:48:30.561Z,8.04
2023-04-15T19:50:57.089Z,8.40
2023-04-15T19:53:25.502Z,8.41
2023-04-15T19:55:52.022Z,8.43
2023-04-15T19:58:18.495Z,8.45
2023-04-15T20:00:44.952Z,8.45
2023-04-15T20:03:11.590Z,8.48
2023-04-15T20:05:38.173Z,8.48
2023-04-15T20:08:04.774Z,8.49
2023-04-15T20:10:31.956Z,8.45
2023-04-15T20:12:58.492Z,8.47
2023-04-15T20:15:25.012Z,8.60
2023-04-15T20:17:51.583Z,8.60
2023-04-15T20:20:18.344Z,8.59
2023-04-15T20:22:44.882Z,8.59
2023-04-15T20:25:11.430Z,8.62
2023-04-15T20:27:37.959Z,8.60
2023-04-15T20:30:05.098Z,8.40
2023-04-15T20:32:35.858Z,8.50
2023-04-15T20:35:04.507Z,8.47
2023-04-15T20:37:33.318Z,8.47
2023-04-15T20:40:00.997Z,8.44
2023-04-15T20:42:27.553Z,8.46
2023-04-15T20:44:54.078Z,8.49
2023-04-15T20:47:20.745Z,8.41
2023-04-15T20:49:47.456Z,8.41
2023-04-15T20:52:13.964Z,8.37
2023-04-15T20:54:40.748Z,8.36
2023-04-15T20:57:07.182Z,8.30
2023-04-15T20:59:34.816Z,7.91
2023-04-15T21:02:01.771Z,8.26
2023-04-15T21:04:28.334Z,8.23
2023-04-15T21:06:54.793Z,8.23
2023-04-15T21:09:21.196Z,8.16
2023-04-15T21:14:18.336Z,8.18
2023-04-15T21:16:45.073Z,7.99
2023-04-15T21:19:11.522Z,8.15
2023-04-15T21:21:37.966Z,8.18
2023-04-15T21:24:06.167Z,8.11
2023-04-15T21:26:32.616Z,8.07
2023-04-15T21:28:59.047Z,8.06
2023-04-15T21:31:25.572Z,8.07
2023-04-15T21:33:51.998Z,8.07
2023-04-15T21:36:18.398Z,8.09
2023-04-15T21:38:44.793Z,8.11
2023-04-15T21:41:11.298Z,7.72
2023-04-15T21:43:37.843Z,8.11
2023-04-15T21:46:23.443Z,8.06
2023-04-15T21:48:51.528Z,8.07
2023-04-15T21:51:17.933Z,8.04
2023-04-15T21:53:44.463Z,8.05
2023-04-15T21:56:11.116Z,8.05
2023-04-15T21:58:37.680Z,8.00
2023-04-15T22:01:04.872Z,8.02
2023-04-15T22:03:36.375Z,8.04
2023-04-15T22:06:03.717Z,7.97
2023-04-15T22:08:36.060Z,7.88
2023-04-15T22:11:08.392Z,7.85
2023-04-15T22:13:35.301Z,7.97
2023-04-15T22:16:02.152Z,8.07
2023-04-15T22:18:28.552Z,8.00
2023-04-15T22:20:56.170Z,8.00
2023-04-15T22:23:22.586Z,7.97
2023-04-15T22:25:48.976Z,7.99
2023-04-15T22:28:15.394Z,8.02
2023-04-15T22:30:42.520Z,8.02
2023-04-15T22:33:09.800Z,7.69
2023-04-15T22:35:37.399Z,8.08
2023-04-15T22:38:04.753Z,7.90
2023-04-15T22:40:31.286Z,8.05
2023-04-15T22:42:57.816Z,8.00
2023-04-15T22:45:24.312Z,8.05
2023-04-15T22:47:50.822Z,8.01
2023-04-15T22:50:17.602Z,8.01
2023-04-15T22:52:46.192Z,8.06
2023-04-15T22:55:13.142Z,8.09
2023-04-15T22:57:39.856Z,8.10
2023-04-15T23:00:07.395Z,7.98
2023-04-15T23:02:34.654Z,8.03
2023-04-15T23:05:02.019Z,8.05
2023-04-15T23:07:31.594Z,8.08
2023-04-15T23:10:00.221Z,8.09
2023-04-15T23:12:27.057Z,8.10
2023-04-15T23:14:53.433Z,8.11
2023-04-15T23:17:19.894Z,8.12
2023-04-15T23:19:46.339Z,8.16
2023-04-15T23:22:12.769Z,8.06
2023-04-15T23:24:39.185Z,8.15
2023-04-15T23:27:05.897Z,8.16
2023-04-15T23:29:32.296Z,8.16
2023-04-15T23:31:58.757Z,8.00
2023-04-15T23:34:25.507Z,8.18
2023-04-15T23:36:51.944Z,8.14
2023-04-15T23:39:18.404Z,8.18
2023-04-15T23:41:44.904Z,8.16
2023-04-15T23:44:11.448Z,8.20
2023-04-15T23:46:37.867Z,8.18
2023-04-15T23:49:04.357Z,8.18
2023-04-15T23:51:30.763Z,8.19
2023-04-15T23:53:57.166Z,8.18
2023-04-15T23:56:23.565Z,8.16
2023-04-15T23:58:50.058Z,8.15
